sensor_id;sensor_type;location;lat;lon;timestamp;temperature;humidity
34726;DHT22;20951;50.818;4.344;2023-05-14T00:00:52;13.60;99.90
34726;DHT22;20951;50.818;4.344;2023-05-14T00:03:18;13.60;99.90
34726;DHT22;20951;50.818;4.344;2023-05-14T00:05:43;13.70;99.90
34726;DHT22;20951;50.818;4.344;2023-05-14T00:08:09;13.60;99.90
34726;DHT22;20951;50.818;4.344;2023-05-14T00:10:35;13.60;99.90
34726;DHT22;20951;50.818;4.344;2023-05-14T00:13:01;13.70;99.90
34726;DHT22;20951;50.818;4.344;2023-05-14T00:15:26;13.60;99.90
34726;DHT22;20951;50.818;4.344;2023-05-14T00:17:52;13.50;99.90
34726;DHT22;20951;50.818;4.344;2023-05-14T00:20:18;13.40;99.90
34726;DHT22;20951;50.818;4.344;2023-05-14T00:22:44;13.40;99.90
34726;DHT22;20951;50.818;4.344;2023-05-14T00:25:10;13.40;99.90
34726;DHT22;20951;50.818;4.344;2023-05-14T00:27:36;13.50;99.90
34726;DHT22;20951;50.818;4.344;2023-05-14T00:30:05;13.50;99.90
34726;DHT22;20951;50.818;4.344;2023-05-14T00:32:35;13.50;99.90
34726;DHT22;20951;50.818;4.344;2023-05-14T00:35:05;13.50;99.90
34726;DHT22;20951;50.818;4.344;2023-05-14T00:37:35;13.50;99.90
34726;DHT22;20951;50.818;4.344;2023-05-14T00:40:05;13.60;99.90
34726;DHT22;20951;50.818;4.344;2023-05-14T00:42:36;13.60;99.90
34726;DHT22;20951;50.818;4.344;2023-05-14T00:45:06;13.70;99.90
34726;DHT22;20951;50.818;4.344;2023-05-14T00:47:36;13.80;99.90
34726;DHT22;20951;50.818;4.344;2023-05-14T00:50:06;13.60;99.90
34726;DHT22;20951;50.818;4.344;2023-05-14T00:52:37;13.70;99.90
34726;DHT22;20951;50.818;4.344;2023-05-14T00:55:06;13.60;99.90
34726;DHT22;20951;50.818;4.344;2023-05-14T00:57:36;13.60;99.90
34726;DHT22;20951;50.818;4.344;2023-05-14T01:00:06;13.50;99.90
34726;DHT22;20951;50.818;4.344;2023-05-14T01:02:36;13.50;99.90
34726;DHT22;20951;50.818;4.344;2023-05-14T01:05:06;13.50;99.90
34726;DHT22;20951;50.818;4.344;2023-05-14T01:07:42;13.60;99.90
34726;DHT22;20951;50.818;4.344;2023-05-14T01:10:20;13.50;99.90
34726;DHT22;20951;50.818;4.344;2023-05-14T01:15:40;13.50;99.90
34726;DHT22;20951;50.818;4.344;2023-05-14T01:18:12;13.40;99.90
34726;DHT22;20951;50.818;4.344;2023-05-14T01:20:41;13.50;99.90
34726;DHT22;20951;50.818;4.344;2023-05-14T01:23:12;13.50;99.90
34726;DHT22;20951;50.818;4.344;2023-05-14T01:25:42;13.50;99.90
34726;DHT22;20951;50.818;4.344;2023-05-14T01:28:19;13.50;99.90
34726;DHT22;20951;50.818;4.344;2023-05-14T01:31:01;13.50;99.90
34726;DHT22;20951;50.818;4.344;2023-05-14T01:33:35;13.40;99.90
34726;DHT22;20951;50.818;4.344;2023-05-14T01:36:04;13.40;99.90
34726;DHT22;20951;50.818;4.344;2023-05-14T01:38:34;13.40;99.90
34726;DHT22;20951;50.818;4.344;2023-05-14T01:41:05;13.40;99.90
34726;DHT22;20951;50.818;4.344;2023-05-14T01:43:35;13.30;99.90
34726;DHT22;20951;50.818;4.344;2023-05-14T01:46:06;13.40;99.90
34726;DHT22;20951;50.818;4.344;2023-05-14T01:48:36;13.30;99.90
34726;DHT22;20951;50.818;4.344;2023-05-14T01:51:07;13.30;99.90
34726;DHT22;20951;50.818;4.344;2023-05-14T01:53:38;13.30;99.90
34726;DHT22;20951;50.818;4.344;2023-05-14T01:56:09;13.40;99.90
34726;DHT22;20951;50.818;4.344;2023-05-14T01:58:39;13.40;99.90
34726;DHT22;20951;50.818;4.344;2023-05-14T02:01:10;13.40;99.90
34726;DHT22;20951;50.818;4.344;2023-05-14T02:03:41;13.50;99.90
34726;DHT22;20951;50.818;4.344;2023-05-14T02:06:11;13.30;99.90
34726;DHT22;20951;50.818;4.344;2023-05-14T02:08:42;13.30;99.90
34726;DHT22;20951;50.818;4.344;2023-05-14T02:11:12;13.20;99.90
34726;DHT22;20951;50.818;4.344;2023-05-14T02:13:42;13.20;99.90
34726;DHT22;20951;50.818;4.344;2023-05-14T02:16:12;13.30;99.90
34726;DHT22;20951;50.818;4.344;2023-05-14T02:18:41;13.30;99.90
34726;DHT22;20951;50.818;4.344;2023-05-14T02:21:11;13.30;99.90
34726;DHT22;20951;50.818;4.344;2023-05-14T02:23:41;13.20;99.90
34726;DHT22;20951;50.818;4.344;2023-05-14T02:26:11;13.10;99.90
34726;DHT22;20951;50.818;4.344;2023-05-14T02:28:41;13.00;99.90
34726;DHT22;20951;50.818;4.344;2023-05-14T02:31:12;13.10;99.90
34726;DHT22;20951;50.818;4.344;2023-05-14T02:33:42;13.20;99.90
34726;DHT22;20951;50.818;4.344;2023-05-14T02:36:11;13.20;99.90
34726;DHT22;20951;50.818;4.344;2023-05-14T02:38:41;13.20;99.90
34726;DHT22;20951;50.818;4.344;2023-05-14T02:41:12;13.30;99.90
34726;DHT22;20951;50.818;4.344;2023-05-14T02:43:42;13.40;99.90
34726;DHT22;20951;50.818;4.344;2023-05-14T02:46:11;13.30;99.90
34726;DHT22;20951;50.818;4.344;2023-05-14T02:48:42;13.20;99.90
34726;DHT22;20951;50.818;4.344;2023-05-14T02:51:12;13.20;99.90
34726;DHT22;20951;50.818;4.344;2023-05-14T02:53:41;13.20;99.90
34726;DHT22;20951;50.818;4.344;2023-05-14T02:56:12;13.20;99.90
34726;DHT22;20951;50.818;4.344;2023-05-14T02:58:42;13.00;99.90
34726;DHT22;20951;50.818;4.344;2023-05-14T03:01:12;13.10;99.90
34726;DHT22;20951;50.818;4.344;2023-05-14T03:03:41;13.20;99.90
34726;DHT22;20951;50.818;4.344;2023-05-14T03:06:11;13.20;99.90
34726;DHT22;20951;50.818;4.344;2023-05-14T03:08:41;13.10;99.90
34726;DHT22;20951;50.818;4.344;2023-05-14T03:11:11;13.20;99.90
34726;DHT22;20951;50.818;4.344;2023-05-14T03:13:41;13.20;99.90
34726;DHT22;20951;50.818;4.344;2023-05-14T03:16:10;13.10;99.90
34726;DHT22;20951;50.818;4.344;2023-05-14T03:18:41;13.20;99.90
34726;DHT22;20951;50.818;4.344;2023-05-14T03:21:10;13.10;99.90
34726;DHT22;20951;50.818;4.344;2023-05-14T03:23:40;13.20;99.90
34726;DHT22;20951;50.818;4.344;2023-05-14T03:26:10;13.20;99.90
34726;DHT22;20951;50.818;4.344;2023-05-14T03:28:42;13.20;99.90
34726;DHT22;20951;50.818;4.344;2023-05-14T03:31:11;13.20;99.90
34726;DHT22;20951;50.818;4.344;2023-05-14T03:33:41;13.10;99.90
34726;DHT22;20951;50.818;4.344;2023-05-14T03:36:11;13.10;99.90
34726;DHT22;20951;50.818;4.344;2023-05-14T03:38:43;13.10;99.90
34726;DHT22;20951;50.818;4.344;2023-05-14T03:41:13;13.10;99.90
34726;DHT22;20951;50.818;4.344;2023-05-14T03:43:43;13.10;99.90
34726;DHT22;20951;50.818;4.344;2023-05-14T03:46:13;13.10;99.90
34726;DHT22;20951;50.818;4.344;2023-05-14T03:48:42;13.20;99.90
34726;DHT22;20951;50.818;4.344;2023-05-14T03:51:13;13.10;99.90
34726;DHT22;20951;50.818;4.344;2023-05-14T03:53:43;13.30;99.90
34726;DHT22;20951;50.818;4.344;2023-05-14T03:56:14;13.20;99.90
34726;DHT22;20951;50.818;4.344;2023-05-14T03:58:44;13.10;99.90
34726;DHT22;20951;50.818;4.344;2023-05-14T04:01:14;13.10;99.90
34726;DHT22;20951;50.818;4.344;2023-05-14T04:03:44;13.20;99.90
34726;DHT22;20951;50.818;4.344;2023-05-14T04:06:15;13.20;99.90
34726;DHT22;20951;50.818;4.344;2023-05-14T04:08:45;13.10;99.90
34726;DHT22;20951;50.818;4.344;2023-05-14T04:11:15;13.10;99.90
34726;DHT22;20951;50.818;4.344;2023-05-14T04:13:45;13.30;99.90
34726;DHT22;20951;50.818;4.344;2023-05-14T04:16:15;13.30;99.90
34726;DHT22;20951;50.818;4.344;2023-05-14T04:18:44;13.30;99.90
34726;DHT22;20951;50.818;4.344;2023-05-14T04:21:15;13.30;99.90
34726;DHT22;20951;50.818;4.344;2023-05-14T04:23:45;13.30;99.90
34726;DHT22;20951;50.818;4.344;2023-05-14T04:26:15;13.20;99.90
34726;DHT22;20951;50.818;4.344;2023-05-14T04:28:45;13.20;99.90
34726;DHT22;20951;50.818;4.344;2023-05-14T04:31:15;13.30;99.90
34726;DHT22;20951;50.818;4.344;2023-05-14T04:33:46;13.30;99.90
34726;DHT22;20951;50.818;4.344;2023-05-14T04:36:16;13.40;99.90
34726;DHT22;20951;50.818;4.344;2023-05-14T04:38:47;13.50;99.90
34726;DHT22;20951;50.818;4.344;2023-05-14T04:41:17;13.50;99.90
34726;DHT22;20951;50.818;4.344;2023-05-14T04:43:49;13.60;99.90
34726;DHT22;20951;50.818;4.344;2023-05-14T04:46:19;13.50;99.90
34726;DHT22;20951;50.818;4.344;2023-05-14T04:48:48;13.50;99.90
34726;DHT22;20951;50.818;4.344;2023-05-14T04:51:18;13.50;99.90
34726;DHT22;20951;50.818;4.344;2023-05-14T04:53:47;13.50;99.90
34726;DHT22;20951;50.818;4.344;2023-05-14T04:56:17;13.30;99.90
34726;DHT22;20951;50.818;4.344;2023-05-14T04:58:48;13.20;99.90
34726;DHT22;20951;50.818;4.344;2023-05-14T05:01:18;13.10;99.90
34726;DHT22;20951;50.818;4.344;2023-05-14T05:03:49;13.10;99.90
34726;DHT22;20951;50.818;4.344;2023-05-14T05:06:19;13.20;99.90
34726;DHT22;20951;50.818;4.344;2023-05-14T05:08:49;13.20;99.90
34726;DHT22;20951;50.818;4.344;2023-05-14T05:11:19;13.30;99.90
34726;DHT22;20951;50.818;4.344;2023-05-14T05:13:49;13.40;99.90
34726;DHT22;20951;50.818;4.344;2023-05-14T05:16:19;13.40;99.90
34726;DHT22;20951;50.818;4.344;2023-05-14T05:18:48;13.30;99.90
34726;DHT22;20951;50.818;4.344;2023-05-14T05:21:18;13.30;99.90
34726;DHT22;20951;50.818;4.344;2023-05-14T05:23:47;13.30;99.90
34726;DHT22;20951;50.818;4.344;2023-05-14T05:26:16;13.20;99.90
34726;DHT22;20951;50.818;4.344;2023-05-14T05:28:45;13.30;99.90
34726;DHT22;20951;50.818;4.344;2023-05-14T05:31:15;13.50;99.90
34726;DHT22;20951;50.818;4.344;2023-05-14T05:33:44;13.50;99.90
34726;DHT22;20951;50.818;4.344;2023-05-14T05:36:14;13.50;99.90
34726;DHT22;20951;50.818;4.344;2023-05-14T05:38:44;13.60;99.90
34726;DHT22;20951;50.818;4.344;2023-05-14T05:41:14;13.60;99.90
34726;DHT22;20951;50.818;4.344;2023-05-14T05:43:43;13.70;99.90
34726;DHT22;20951;50.818;4.344;2023-05-14T05:46:13;13.70;99.90
34726;DHT22;20951;50.818;4.344;2023-05-14T05:48:42;13.70;99.90
34726;DHT22;20951;50.818;4.344;2023-05-14T05:51:12;13.70;99.90
34726;DHT22;20951;50.818;4.344;2023-05-14T05:53:42;13.60;99.90
34726;DHT22;20951;50.818;4.344;2023-05-14T05:56:12;13.50;99.90
34726;DHT22;20951;50.818;4.344;2023-05-14T05:58:42;13.60;99.90
34726;DHT22;20951;50.818;4.344;2023-05-14T06:01:11;13.70;99.90
34726;DHT22;20951;50.818;4.344;2023-05-14T06:03:41;13.60;99.90
34726;DHT22;20951;50.818;4.344;2023-05-14T06:06:10;13.50;99.90
34726;DHT22;20951;50.818;4.344;2023-05-14T06:08:40;13.50;99.90
34726;DHT22;20951;50.818;4.344;2023-05-14T06:11:09;13.40;99.90
34726;DHT22;20951;50.818;4.344;2023-05-14T06:13:38;13.40;99.90
34726;DHT22;20951;50.818;4.344;2023-05-14T06:16:08;13.30;99.90
34726;DHT22;20951;50.818;4.344;2023-05-14T06:18:37;13.30;99.90
34726;DHT22;20951;50.818;4.344;2023-05-14T06:21:06;13.30;99.90
34726;DHT22;20951;50.818;4.344;2023-05-14T06:23:37;13.40;99.90
34726;DHT22;20951;50.818;4.344;2023-05-14T06:26:06;13.50;99.90
34726;DHT22;20951;50.818;4.344;2023-05-14T06:28:36;13.60;99.90
34726;DHT22;20951;50.818;4.344;2023-05-14T06:31:06;13.70;99.90
34726;DHT22;20951;50.818;4.344;2023-05-14T06:33:36;13.50;99.90
34726;DHT22;20951;50.818;4.344;2023-05-14T06:36:05;13.50;99.90
34726;DHT22;20951;50.818;4.344;2023-05-14T06:38:35;13.50;99.90
34726;DHT22;20951;50.818;4.344;2023-05-14T06:41:05;13.50;99.90
34726;DHT22;20951;50.818;4.344;2023-05-14T06:43:34;13.50;99.90
34726;DHT22;20951;50.818;4.344;2023-05-14T06:46:05;13.60;99.90
34726;DHT22;20951;50.818;4.344;2023-05-14T06:48:35;13.50;99.90
34726;DHT22;20951;50.818;4.344;2023-05-14T06:51:05;13.50;99.90
34726;DHT22;20951;50.818;4.344;2023-05-14T06:53:36;13.50;99.90
34726;DHT22;20951;50.818;4.344;2023-05-14T06:56:07;13.30;99.90
34726;DHT22;20951;50.818;4.344;2023-05-14T06:58:40;13.40;99.90
34726;DHT22;20951;50.818;4.344;2023-05-14T07:01:13;13.40;99.90
34726;DHT22;20951;50.818;4.344;2023-05-14T07:03:44;13.40;99.90
34726;DHT22;20951;50.818;4.344;2023-05-14T07:06:14;13.30;99.90
34726;DHT22;20951;50.818;4.344;2023-05-14T07:08:44;13.40;99.90
34726;DHT22;20951;50.818;4.344;2023-05-14T07:11:15;13.30;99.90
34726;DHT22;20951;50.818;4.344;2023-05-14T07:13:45;13.40;99.90
34726;DHT22;20951;50.818;4.344;2023-05-14T07:16:14;13.30;99.90
34726;DHT22;20951;50.818;4.344;2023-05-14T07:18:44;13.20;99.90
34726;DHT22;20951;50.818;4.344;2023-05-14T07:21:14;13.10;99.90
34726;DHT22;20951;50.818;4.344;2023-05-14T07:23:44;13.30;99.90
34726;DHT22;20951;50.818;4.344;2023-05-14T07:26:15;13.40;99.90
34726;DHT22;20951;50.818;4.344;2023-05-14T07:28:45;13.30;99.90
34726;DHT22;20951;50.818;4.344;2023-05-14T07:31:17;13.50;99.90
34726;DHT22;20951;50.818;4.344;2023-05-14T07:33:48;13.60;99.90
34726;DHT22;20951;50.818;4.344;2023-05-14T07:36:22;13.70;99.90
34726;DHT22;20951;50.818;4.344;2023-05-14T07:38:53;13.60;99.90
34726;DHT22;20951;50.818;4.344;2023-05-14T07:41:24;13.80;99.90
34726;DHT22;20951;50.818;4.344;2023-05-14T07:43:55;13.70;99.90
34726;DHT22;20951;50.818;4.344;2023-05-14T07:46:25;13.90;99.90
34726;DHT22;20951;50.818;4.344;2023-05-14T07:48:55;14.20;99.90
34726;DHT22;20951;50.818;4.344;2023-05-14T07:51:25;14.40;99.90
34726;DHT22;20951;50.818;4.344;2023-05-14T07:53:55;14.60;99.90
34726;DHT22;20951;50.818;4.344;2023-05-14T07:56:26;14.70;99.90
34726;DHT22;20951;50.818;4.344;2023-05-14T07:58:55;14.60;99.90
34726;DHT22;20951;50.818;4.344;2023-05-14T08:01:26;14.70;99.90
34726;DHT22;20951;50.818;4.344;2023-05-14T08:03:59;14.40;99.90
34726;DHT22;20951;50.818;4.344;2023-05-14T08:06:30;14.40;99.90
34726;DHT22;20951;50.818;4.344;2023-05-14T08:09:02;14.10;99.90
34726;DHT22;20951;50.818;4.344;2023-05-14T08:11:32;14.20;99.90
34726;DHT22;20951;50.818;4.344;2023-05-14T08:14:02;14.30;99.90
34726;DHT22;20951;50.818;4.344;2023-05-14T08:16:33;14.40;99.90
34726;DHT22;20951;50.818;4.344;2023-05-14T08:19:04;14.50;99.90
34726;DHT22;20951;50.818;4.344;2023-05-14T08:21:36;14.50;99.90
34726;DHT22;20951;50.818;4.344;2023-05-14T08:24:07;14.40;99.90
34726;DHT22;20951;50.818;4.344;2023-05-14T08:26:38;14.40;99.90
34726;DHT22;20951;50.818;4.344;2023-05-14T08:29:08;14.50;99.90
34726;DHT22;20951;50.818;4.344;2023-05-14T08:31:39;14.50;99.90
34726;DHT22;20951;50.818;4.344;2023-05-14T08:34:12;14.50;99.90
34726;DHT22;20951;50.818;4.344;2023-05-14T08:36:43;14.50;99.90
34726;DHT22;20951;50.818;4.344;2023-05-14T08:39:12;14.60;99.90
34726;DHT22;20951;50.818;4.344;2023-05-14T08:41:42;14.80;99.90
34726;DHT22;20951;50.818;4.344;2023-05-14T08:44:17;14.80;99.90
34726;DHT22;20951;50.818;4.344;2023-05-14T08:46:47;14.90;99.90
34726;DHT22;20951;50.818;4.344;2023-05-14T08:49:38;15.10;99.90
34726;DHT22;20951;50.818;4.344;2023-05-14T08:52:09;15.40;99.90
34726;DHT22;20951;50.818;4.344;2023-05-14T08:54:39;15.60;99.90
34726;DHT22;20951;50.818;4.344;2023-05-14T08:57:11;15.80;99.90
34726;DHT22;20951;50.818;4.344;2023-05-14T08:59:41;15.80;99.90
34726;DHT22;20951;50.818;4.344;2023-05-14T09:02:13;16.20;99.90
34726;DHT22;20951;50.818;4.344;2023-05-14T09:04:43;16.10;99.90
34726;DHT22;20951;50.818;4.344;2023-05-14T09:07:14;15.90;99.90
34726;DHT22;20951;50.818;4.344;2023-05-14T09:09:44;16.20;99.90
34726;DHT22;20951;50.818;4.344;2023-05-14T09:12:15;16.60;99.90
34726;DHT22;20951;50.818;4.344;2023-05-14T09:14:46;16.60;99.90
34726;DHT22;20951;50.818;4.344;2023-05-14T09:17:18;16.90;99.90
34726;DHT22;20951;50.818;4.344;2023-05-14T09:19:53;16.90;99.90
34726;DHT22;20951;50.818;4.344;2023-05-14T09:22:24;16.60;99.90
34726;DHT22;20951;50.818;4.344;2023-05-14T09:25:06;16.20;99.90
34726;DHT22;20951;50.818;4.344;2023-05-14T09:27:36;16.00;99.90
34726;DHT22;20951;50.818;4.344;2023-05-14T09:30:10;16.00;99.90
34726;DHT22;20951;50.818;4.344;2023-05-14T09:32:43;16.10;99.90
34726;DHT22;20951;50.818;4.344;2023-05-14T09:35:21;16.30;99.90
34726;DHT22;20951;50.818;4.344;2023-05-14T09:37:53;17.40;99.90
34726;DHT22;20951;50.818;4.344;2023-05-14T09:40:24;18.60;99.90
34726;DHT22;20951;50.818;4.344;2023-05-14T09:42:57;19.80;99.90
34726;DHT22;20951;50.818;4.344;2023-05-14T09:45:29;21.90;99.90
34726;DHT22;20951;50.818;4.344;2023-05-14T09:48:04;23.70;99.90
34726;DHT22;20951;50.818;4.344;2023-05-14T09:50:41;24.40;99.90
34726;DHT22;20951;50.818;4.344;2023-05-14T09:53:08;25.60;99.90
34726;DHT22;20951;50.818;4.344;2023-05-14T09:55:35;25.50;99.90
34726;DHT22;20951;50.818;4.344;2023-05-14T09:58:02;25.40;99.90
34726;DHT22;20951;50.818;4.344;2023-05-14T10:00:30;25.20;99.90
34726;DHT22;20951;50.818;4.344;2023-05-14T10:02:57;24.50;99.90
34726;DHT22;20951;50.818;4.344;2023-05-14T10:05:24;24.00;99.90
34726;DHT22;20951;50.818;4.344;2023-05-14T10:07:53;23.30;99.90
34726;DHT22;20951;50.818;4.344;2023-05-14T10:10:25;23.40;99.90
34726;DHT22;20951;50.818;4.344;2023-05-14T10:12:59;22.80;99.90
34726;DHT22;20951;50.818;4.344;2023-05-14T10:15:36;23.00;99.90
34726;DHT22;20951;50.818;4.344;2023-05-14T10:18:25;22.20;99.90
34726;DHT22;20951;50.818;4.344;2023-05-14T10:21:07;22.70;99.90
34726;DHT22;20951;50.818;4.344;2023-05-14T10:23:38;24.00;99.90
34726;DHT22;20951;50.818;4.344;2023-05-14T10:26:09;23.90;99.90
34726;DHT22;20951;50.818;4.344;2023-05-14T10:28:39;22.50;99.90
34726;DHT22;20951;50.818;4.344;2023-05-14T10:31:09;22.20;99.90
34726;DHT22;20951;50.818;4.344;2023-05-14T10:33:49;22.50;99.90
34726;DHT22;20951;50.818;4.344;2023-05-14T10:36:19;23.00;99.90
34726;DHT22;20951;50.818;4.344;2023-05-14T10:38:55;23.20;99.90
34726;DHT22;20951;50.818;4.344;2023-05-14T10:41:26;23.00;99.90
34726;DHT22;20951;50.818;4.344;2023-05-14T10:43:57;23.70;99.90
34726;DHT22;20951;50.818;4.344;2023-05-14T10:46:27;25.00;99.90
34726;DHT22;20951;50.818;4.344;2023-05-14T10:48:57;25.40;99.90
34726;DHT22;20951;50.818;4.344;2023-05-14T10:51:29;26.50;99.90
34726;DHT22;20951;50.818;4.344;2023-05-14T10:54:00;26.10;99.90
34726;DHT22;20951;50.818;4.344;2023-05-14T10:56:32;25.40;99.90
34726;DHT22;20951;50.818;4.344;2023-05-14T10:59:08;25.60;99.90
34726;DHT22;20951;50.818;4.344;2023-05-14T11:01:41;26.40;99.90
34726;DHT22;20951;50.818;4.344;2023-05-14T11:04:20;26.70;99.90
34726;DHT22;20951;50.818;4.344;2023-05-14T11:06:51;26.10;99.90
34726;DHT22;20951;50.818;4.344;2023-05-14T11:09:20;26.40;99.90
34726;DHT22;20951;50.818;4.344;2023-05-14T11:11:48;27.80;99.90
34726;DHT22;20951;50.818;4.344;2023-05-14T11:14:15;28.40;99.30
34726;DHT22;20951;50.818;4.344;2023-05-14T11:16:42;29.20;97.50
34726;DHT22;20951;50.818;4.344;2023-05-14T11:19:10;28.70;97.10
34726;DHT22;20951;50.818;4.344;2023-05-14T11:21:40;27.80;97.80
34726;DHT22;20951;50.818;4.344;2023-05-14T11:24:11;26.70;99.50
34726;DHT22;20951;50.818;4.344;2023-05-14T11:26:42;26.20;99.90
34726;DHT22;20951;50.818;4.344;2023-05-14T11:29:12;26.00;99.90
34726;DHT22;20951;50.818;4.344;2023-05-14T11:31:42;26.10;99.90
34726;DHT22;20951;50.818;4.344;2023-05-14T11:34:12;26.80;99.70
34726;DHT22;20951;50.818;4.344;2023-05-14T11:36:44;26.70;99.30
34726;DHT22;20951;50.818;4.344;2023-05-14T11:39:21;26.00;99.40
34726;DHT22;20951;50.818;4.344;2023-05-14T11:41:51;25.60;99.90
34726;DHT22;20951;50.818;4.344;2023-05-14T11:44:22;25.30;99.90
34726;DHT22;20951;50.818;4.344;2023-05-14T11:46:57;25.90;99.90
34726;DHT22;20951;50.818;4.344;2023-05-14T11:49:31;26.50;99.90
34726;DHT22;20951;50.818;4.344;2023-05-14T11:52:04;26.50;99.90
34726;DHT22;20951;50.818;4.344;2023-05-14T11:54:34;27.60;98.50
34726;DHT22;20951;50.818;4.344;2023-05-14T11:57:23;28.80;98.10
34726;DHT22;20951;50.818;4.344;2023-05-14T11:59:58;28.20;96.10
34726;DHT22;20951;50.818;4.344;2023-05-14T12:02:28;27.60;97.70
34726;DHT22;20951;50.818;4.344;2023-05-14T12:04:58;27.10;98.80
34726;DHT22;20951;50.818;4.344;2023-05-14T12:07:29;27.10;98.90
34726;DHT22;20951;50.818;4.344;2023-05-14T12:10:01;27.80;97.90
34726;DHT22;20951;50.818;4.344;2023-05-14T12:12:35;27.90;97.30
34726;DHT22;20951;50.818;4.344;2023-05-14T12:15:10;27.10;97.70
34726;DHT22;20951;50.818;4.344;2023-05-14T12:17:40;28.30;97.60
34726;DHT22;20951;50.818;4.344;2023-05-14T12:20:10;28.90;95.60
34726;DHT22;20951;50.818;4.344;2023-05-14T12:22:40;28.40;95.80
34726;DHT22;20951;50.818;4.344;2023-05-14T12:25:12;27.60;96.90
34726;DHT22;20951;50.818;4.344;2023-05-14T12:27:44;27.60;97.50
34726;DHT22;20951;50.818;4.344;2023-05-14T12:30:16;28.00;96.90
34726;DHT22;20951;50.818;4.344;2023-05-14T12:32:47;27.00;97.90
34726;DHT22;20951;50.818;4.344;2023-05-14T12:35:19;26.80;99.20
34726;DHT22;20951;50.818;4.344;2023-05-14T12:37:49;26.90;98.70
34726;DHT22;20951;50.818;4.344;2023-05-14T12:40:18;27.70;98.30
34726;DHT22;20951;50.818;4.344;2023-05-14T12:42:44;28.00;97.80
34726;DHT22;20951;50.818;4.344;2023-05-14T12:45:10;27.80;97.50
34726;DHT22;20951;50.818;4.344;2023-05-14T12:47:36;27.90;97.40
34726;DHT22;20951;50.818;4.344;2023-05-14T12:50:03;28.30;96.60
34726;DHT22;20951;50.818;4.344;2023-05-14T12:52:31;28.50;96.00
34726;DHT22;20951;50.818;4.344;2023-05-14T12:54:58;28.10;96.40
34726;DHT22;20951;50.818;4.344;2023-05-14T12:57:25;28.20;96.00
34726;DHT22;20951;50.818;4.344;2023-05-14T12:59:54;28.10;96.70
34726;DHT22;20951;50.818;4.344;2023-05-14T13:02:25;28.20;96.70
34726;DHT22;20951;50.818;4.344;2023-05-14T13:04:55;27.90;96.60
34726;DHT22;20951;50.818;4.344;2023-05-14T13:07:24;27.70;96.60
34726;DHT22;20951;50.818;4.344;2023-05-14T13:09:54;27.80;97.00
34726;DHT22;20951;50.818;4.344;2023-05-14T13:12:24;29.40;96.60
34726;DHT22;20951;50.818;4.344;2023-05-14T13:14:56;31.10;94.00
34726;DHT22;20951;50.818;4.344;2023-05-14T13:17:26;30.20;93.50
34726;DHT22;20951;50.818;4.344;2023-05-14T13:19:56;29.80;94.10
34726;DHT22;20951;50.818;4.344;2023-05-14T13:22:26;30.30;93.90
34726;DHT22;20951;50.818;4.344;2023-05-14T13:24:56;31.70;92.20
34726;DHT22;20951;50.818;4.344;2023-05-14T13:27:26;31.90;91.10
34726;DHT22;20951;50.818;4.344;2023-05-14T13:29:56;30.70;91.80
34726;DHT22;20951;50.818;4.344;2023-05-14T13:32:24;30.70;92.10
34726;DHT22;20951;50.818;4.344;2023-05-14T13:34:50;30.50;92.10
34726;DHT22;20951;50.818;4.344;2023-05-14T13:37:18;30.50;92.10
34726;DHT22;20951;50.818;4.344;2023-05-14T13:39:48;30.60;91.80
34726;DHT22;20951;50.818;4.344;2023-05-14T13:42:18;31.00;91.40
34726;DHT22;20951;50.818;4.344;2023-05-14T13:44:48;30.40;91.10
34726;DHT22;20951;50.818;4.344;2023-05-14T13:47:17;30.60;91.90
34726;DHT22;20951;50.818;4.344;2023-05-14T13:49:48;30.50;91.60
34726;DHT22;20951;50.818;4.344;2023-05-14T13:52:18;29.60;92.10
34726;DHT22;20951;50.818;4.344;2023-05-14T13:54:48;28.70;93.20
34726;DHT22;20951;50.818;4.344;2023-05-14T13:57:19;27.50;94.30
34726;DHT22;20951;50.818;4.344;2023-05-14T13:59:50;26.60;96.30
34726;DHT22;20951;50.818;4.344;2023-05-14T14:02:17;26.70;96.30
34726;DHT22;20951;50.818;4.344;2023-05-14T14:04:43;26.60;96.70
34726;DHT22;20951;50.818;4.344;2023-05-14T14:07:10;27.00;96.70
34726;DHT22;20951;50.818;4.344;2023-05-14T14:09:40;27.30;96.00
34726;DHT22;20951;50.818;4.344;2023-05-14T14:12:09;27.70;95.10
34726;DHT22;20951;50.818;4.344;2023-05-14T14:14:38;28.00;95.60
34726;DHT22;20951;50.818;4.344;2023-05-14T14:17:08;27.90;95.00
34726;DHT22;20951;50.818;4.344;2023-05-14T14:19:37;27.70;95.60
34726;DHT22;20951;50.818;4.344;2023-05-14T14:22:05;27.70;95.60
34726;DHT22;20951;50.818;4.344;2023-05-14T14:24:31;26.80;96.30
34726;DHT22;20951;50.818;4.344;2023-05-14T14:26:57;26.30;96.80
34726;DHT22;20951;50.818;4.344;2023-05-14T14:29:23;25.80;97.30
34726;DHT22;20951;50.818;4.344;2023-05-14T14:31:49;25.10;98.20
34726;DHT22;20951;50.818;4.344;2023-05-14T14:34:16;25.00;99.00
34726;DHT22;20951;50.818;4.344;2023-05-14T14:36:43;24.60;99.90
34726;DHT22;20951;50.818;4.344;2023-05-14T14:39:11;24.10;99.90
34726;DHT22;20951;50.818;4.344;2023-05-14T14:41:37;24.00;99.90
34726;DHT22;20951;50.818;4.344;2023-05-14T14:44:05;23.90;99.90
34726;DHT22;20951;50.818;4.344;2023-05-14T14:46:35;23.90;99.90
34726;DHT22;20951;50.818;4.344;2023-05-14T14:49:07;23.70;99.90
34726;DHT22;20951;50.818;4.344;2023-05-14T14:51:41;23.80;99.90
34726;DHT22;20951;50.818;4.344;2023-05-14T14:54:15;23.70;99.90
34726;DHT22;20951;50.818;4.344;2023-05-14T14:56:44;23.50;99.90
34726;DHT22;20951;50.818;4.344;2023-05-14T14:59:15;23.20;99.90
34726;DHT22;20951;50.818;4.344;2023-05-14T15:01:47;23.00;99.90
34726;DHT22;20951;50.818;4.344;2023-05-14T15:04:18;22.90;99.90
34726;DHT22;20951;50.818;4.344;2023-05-14T15:06:48;22.90;99.90
34726;DHT22;20951;50.818;4.344;2023-05-14T15:09:19;22.90;99.90
34726;DHT22;20951;50.818;4.344;2023-05-14T15:11:49;23.00;99.90
34726;DHT22;20951;50.818;4.344;2023-05-14T15:14:19;23.20;99.90
34726;DHT22;20951;50.818;4.344;2023-05-14T15:16:50;23.30;99.90
34726;DHT22;20951;50.818;4.344;2023-05-14T15:19:21;23.40;99.90
34726;DHT22;20951;50.818;4.344;2023-05-14T15:21:51;23.40;99.90
34726;DHT22;20951;50.818;4.344;2023-05-14T15:24:22;23.10;99.90
34726;DHT22;20951;50.818;4.344;2023-05-14T15:26:52;22.60;99.90
34726;DHT22;20951;50.818;4.344;2023-05-14T15:29:23;22.40;99.90
34726;DHT22;20951;50.818;4.344;2023-05-14T15:31:54;22.20;99.90
34726;DHT22;20951;50.818;4.344;2023-05-14T15:34:25;22.20;99.90
34726;DHT22;20951;50.818;4.344;2023-05-14T15:36:53;21.90;99.90
34726;DHT22;20951;50.818;4.344;2023-05-14T15:39:19;21.80;99.90
34726;DHT22;20951;50.818;4.344;2023-05-14T15:41:47;21.70;99.90
34726;DHT22;20951;50.818;4.344;2023-05-14T15:44:17;21.60;99.90
34726;DHT22;20951;50.818;4.344;2023-05-14T15:46:46;21.50;99.90
34726;DHT22;20951;50.818;4.344;2023-05-14T15:49:16;21.40;99.90
34726;DHT22;20951;50.818;4.344;2023-05-14T15:51:44;21.20;99.90